createdAt,value
2023-02-17T00:00:19.372Z,10.44
2023-02-17T00:02:57.166Z,10.47
2023-02-17T00:05:30.111Z,10.46
2023-02-17T00:08:03.043Z,10.50
2023-02-17T00:10:37.696Z,10.52
2023-02-17T00:13:10.646Z,10.53
2023-02-17T00:15:43.558Z,10.54
2023-02-17T00:18:16.492Z,10.57
2023-02-17T00:20:49.397Z,10.58
2023-02-17T00:23:22.282Z,10.61
2023-02-17T00:25:56.559Z,10.65
2023-02-17T00:28:29.449Z,10.66
2023-02-17T00:31:07.598Z,10.68
2023-02-17T00:33:40.553Z,10.68
2023-02-17T00:36:17.797Z,10.69
2023-02-17T00:38:50.781Z,10.67
2023-02-17T00:41:26.566Z,10.71
2023-02-17T00:44:00.113Z,10.69
2023-02-17T00:46:33.136Z,10.68
2023-02-17T00:49:06.007Z,10.63
2023-02-17T00:51:38.865Z,10.59
2023-02-17T00:54:11.904Z,10.54
2023-02-17T00:56:46.574Z,10.49
2023-02-17T00:59:19.604Z,10.40
2023-02-17T01:01:52.547Z,10.34
2023-02-17T01:04:25.612Z,10.25
2023-02-17T01:06:58.617Z,10.17
2023-02-17T01:09:31.589Z,10.09
2023-02-17T01:12:06.120Z,10.03
2023-02-17T01:14:39.307Z,9.94
2023-02-17T01:17:12.272Z,9.84
2023-02-17T01:19:45.163Z,9.79
2023-02-17T01:22:18.057Z,9.69
2023-02-17T01:24:50.974Z,9.62
2023-02-17T01:27:25.298Z,9.56
2023-02-17T01:29:58.540Z,9.50
2023-02-17T01:32:31.418Z,9.49
2023-02-17T01:35:04.327Z,9.48
2023-02-17T01:37:37.256Z,9.48
2023-02-17T01:40:10.965Z,9.51
2023-02-17T01:42:45.414Z,9.58
2023-02-17T01:45:41.732Z,9.64
2023-02-17T01:48:17.839Z,9.69
2023-02-17T01:50:55.654Z,9.74
2023-02-17T01:53:34.643Z,9.80
2023-02-17T01:56:09.255Z,9.88
2023-02-17T01:58:46.821Z,9.96
2023-02-17T02:01:19.790Z,10.03
2023-02-17T02:03:53.603Z,10.11
2023-02-17T02:06:29.488Z,10.17
2023-02-17T02:09:06.140Z,10.26
2023-02-17T02:11:39.238Z,10.29
2023-02-17T02:14:14.101Z,10.36
2023-02-17T02:16:56.222Z,10.39
2023-02-17T02:20:01.865Z,10.45
2023-02-17T02:22:49.421Z,10.46
2023-02-17T02:25:42.848Z,10.50
2023-02-17T02:28:28.589Z,10.52
2023-02-17T02:31:20.894Z,10.54
2023-02-17T02:33:59.265Z,10.55
2023-02-17T02:36:35.559Z,10.57
2023-02-17T02:39:12.767Z,10.59
2023-02-17T02:41:49.020Z,10.59
2023-02-17T02:44:23.220Z,10.59
2023-02-17T02:46:59.613Z,10.61
2023-02-17T02:49:37.250Z,10.63
2023-02-17T02:52:18.924Z,10.66
2023-02-17T02:55:01.070Z,10.66
2023-02-17T02:57:44.208Z,10.67
2023-02-17T03:00:26.348Z,10.70
2023-02-17T03:03:04.427Z,10.72
2023-02-17T03:05:50.726Z,10.76
2023-02-17T03:08:32.887Z,10.81
2023-02-17T03:11:06.192Z,10.84
2023-02-17T03:13:39.643Z,10.90
2023-02-17T03:16:14.792Z,10.96
2023-02-17T03:18:48.509Z,11.03
2023-02-17T03:21:23.276Z,11.08
2023-02-17T03:23:56.248Z,11.15
2023-02-17T03:26:29.289Z,11.20
2023-02-17T03:29:02.344Z,11.24
2023-02-17T03:31:36.209Z,11.33
2023-02-17T03:34:09.789Z,11.38
2023-02-17T03:36:44.110Z,11.45
2023-02-17T03:39:17.393Z,11.50
2023-02-17T03:41:51.686Z,11.57
2023-02-17T03:44:24.552Z,11.63
2023-02-17T03:46:57.469Z,11.68
2023-02-17T03:49:30.583Z,11.73
2023-02-17T03:52:05.413Z,11.79
2023-02-17T03:54:38.335Z,11.85
2023-02-17T03:57:11.271Z,11.86
2023-02-17T03:59:44.214Z,11.91
2023-02-17T04:02:17.165Z,11.94
2023-02-17T04:04:50.233Z,11.99
2023-02-17T04:07:24.603Z,12.01
2023-02-17T04:09:57.492Z,12.05
2023-02-17T04:12:30.896Z,12.06
2023-02-17T04:15:03.933Z,12.09
2023-02-17T04:17:37.690Z,12.11
2023-02-17T04:20:11.548Z,12.16
2023-02-17T04:22:46.382Z,12.18
2023-02-17T04:25:19.606Z,12.19
2023-02-17T04:27:52.449Z,12.21
2023-02-17T04:30:25.420Z,12.23
2023-02-17T04:32:58.582Z,12.25
2023-02-17T04:35:31.674Z,12.27
2023-02-17T04:38:08.737Z,12.30
2023-02-17T04:40:41.769Z,12.31
2023-02-17T04:43:14.634Z,12.32
2023-02-17T04:45:47.513Z,12.33
2023-02-17T04:48:20.966Z,12.35
2023-02-17T04:50:54.114Z,12.35
2023-02-17T04:53:28.696Z,12.37
2023-02-17T04:56:01.668Z,12.36
2023-02-17T04:58:34.523Z,12.36
2023-02-17T05:01:07.572Z,12.38
2023-02-17T05:03:40.524Z,12.36
2023-02-17T05:06:13.447Z,12.37
2023-02-17T05:08:50.615Z,12.39
2023-02-17T05:11:23.520Z,12.38
2023-02-17T05:13:56.643Z,12.39
2023-02-17T05:16:29.515Z,12.37
2023-02-17T05:19:02.414Z,12.38
2023-02-17T05:21:35.405Z,12.40
2023-02-17T05:24:09.803Z,12.41
2023-02-17T05:26:42.652Z,12.39
2023-02-17T05:29:15.716Z,12.42
2023-02-17T05:31:48.732Z,12.44
2023-02-17T05:34:21.676Z,12.46
2023-02-17T05:36:54.614Z,12.50
2023-02-17T05:39:29.078Z,12.52
2023-02-17T05:42:02.062Z,12.55
2023-02-17T05:44:34.930Z,12.57
2023-02-17T05:47:07.850Z,12.61
2023-02-17T05:49:40.721Z,12.63
2023-02-17T05:52:13.684Z,12.65
2023-02-17T05:54:48.117Z,12.69
2023-02-17T05:57:21.385Z,12.69
2023-02-17T05:59:54.321Z,12.72
2023-02-17T06:02:27.262Z,12.75
2023-02-17T06:05:00.579Z,12.76
2023-02-17T06:07:33.527Z,12.80
2023-02-17T06:10:09.807Z,12.82
2023-02-17T06:12:42.798Z,12.81
2023-02-17T06:15:15.857Z,12.82
2023-02-17T06:17:48.800Z,12.83
2023-02-17T06:20:21.986Z,12.86
2023-02-17T06:22:54.850Z,12.87
2023-02-17T06:25:29.131Z,12.89
2023-02-17T06:28:02.187Z,12.88
2023-02-17T06:30:35.231Z,12.89
2023-02-17T06:33:08.109Z,12.90
2023-02-17T06:35:41.156Z,12.88
2023-02-17T06:38:14.105Z,12.88
2023-02-17T06:40:48.486Z,12.89
2023-02-17T06:43:21.528Z,12.89
2023-02-17T06:45:54.635Z,12.86
2023-02-17T06:48:27.517Z,12.87
2023-02-17T06:51:00.758Z,12.87
2023-02-17T06:53:33.638Z,12.87
2023-02-17T06:56:08.550Z,12.88
2023-02-17T06:58:41.493Z,12.87
2023-02-17T07:01:18.940Z,12.91
2023-02-17T07:03:51.795Z,12.89
2023-02-17T07:06:25.850Z,12.91
2023-02-17T07:08:58.805Z,12.93
2023-02-17T07:11:33.243Z,12.95
2023-02-17T07:14:06.858Z,12.97
2023-02-17T07:16:40.160Z,12.99
2023-02-17T07:19:13.459Z,13.04
2023-02-17T07:21:46.720Z,13.08
2023-02-17T07:24:19.826Z,13.14
2023-02-17T07:26:56.267Z,13.20
2023-02-17T07:29:29.342Z,13.26
2023-02-17T07:32:02.738Z,13.32
2023-02-17T07:34:35.923Z,13.40
2023-02-17T07:37:09.365Z,13.48
2023-02-17T07:39:42.269Z,13.56
2023-02-17T07:42:16.896Z,13.66
2023-02-17T07:44:49.925Z,13.73
2023-02-17T07:47:22.801Z,13.83
2023-02-17T07:49:55.959Z,13.90
2023-02-17T07:52:28.976Z,14.00
2023-02-17T07:55:01.845Z,14.08
2023-02-17T07:57:36.138Z,14.15
2023-02-17T08:00:10.991Z,14.22
2023-02-17T08:02:44.044Z,14.28
2023-02-17T08:05:17.029Z,14.35
2023-02-17T08:08:09.962Z,14.42
2023-02-17T08:11:00.668Z,14.51
2023-02-17T08:13:35.041Z,14.60
2023-02-17T08:16:08.340Z,14.67
2023-02-17T08:18:41.408Z,14.75
2023-02-17T08:21:14.258Z,14.83
2023-02-17T08:23:47.250Z,14.90
2023-02-17T08:26:20.656Z,14.97
2023-02-17T08:28:54.992Z,15.06
2023-02-17T08:31:30.787Z,15.13
2023-02-17T08:34:08.045Z,15.20
2023-02-17T08:36:41.293Z,15.24
2023-02-17T08:39:18.255Z,15.31
2023-02-17T08:41:51.573Z,15.33
2023-02-17T08:44:26.062Z,15.38
2023-02-17T08:46:58.902Z,15.44
2023-02-17T08:49:32.814Z,15.50
2023-02-17T08:52:06.102Z,15.55
2023-02-17T08:54:39.455Z,15.59
2023-02-17T08:57:12.429Z,15.65
2023-02-17T08:59:48.175Z,15.70
2023-02-17T09:02:21.284Z,15.73
2023-02-17T09:04:54.450Z,15.79
2023-02-17T09:07:27.802Z,15.84
2023-02-17T09:10:01.519Z,15.92
2023-02-17T09:12:34.607Z,15.97
2023-02-17T09:15:10.313Z,16.07
2023-02-17T09:17:43.246Z,16.15
2023-02-17T09:20:24.790Z,16.25
2023-02-17T09:22:58.263Z,16.38
2023-02-17T09:25:31.167Z,16.52
2023-02-17T09:28:04.193Z,16.67
2023-02-17T09:30:38.934Z,16.81
2023-02-17T09:33:11.930Z,16.90
2023-02-17T09:35:45.182Z,16.98
2023-02-17T09:38:18.067Z,17.08
2023-02-17T09:40:51.549Z,17.13
2023-02-17T09:43:29.872Z,17.20
2023-02-17T09:46:11.031Z,17.26
2023-02-17T09:48:45.279Z,17.27
2023-02-17T09:51:24.086Z,17.33
2023-02-17T09:54:05.937Z,17.37
2023-02-17T09:56:40.049Z,17.40
2023-02-17T09:59:17.748Z,17.46
2023-02-17T10:01:54.793Z,17.49
2023-02-17T10:04:32.926Z,17.53
2023-02-17T10:07:12.684Z,17.59
2023-02-17T10:09:51.566Z,17.63
2023-02-17T10:12:28.556Z,17.68
2023-02-17T10:15:06.529Z,17.73
2023-02-17T10:17:47.226Z,17.78
2023-02-17T10:20:24.739Z,17.79
2023-02-17T10:23:04.413Z,17.77
2023-02-17T10:25:52.383Z,17.77
2023-02-17T10:28:39.759Z,17.73
2023-02-17T10:31:16.441Z,17.72
2023-02-17T10:33:57.654Z,17.72
2023-02-17T10:36:41.202Z,17.72
2023-02-17T10:39:30.504Z,17.71
2023-02-17T10:42:05.314Z,17.75
2023-02-17T10:44:39.259Z,17.78
2023-02-17T10:47:12.591Z,17.84
2023-02-17T10:49:50.772Z,17.92
2023-02-17T10:52:25.622Z,18.00
2023-02-17T10:55:11.296Z,18.09
2023-02-17T10:57:53.187Z,18.17
2023-02-17T11:00:26.997Z,18.28
2023-02-17T11:03:00.128Z,18.38
2023-02-17T11:05:36.009Z,18.47
2023-02-17T11:08:30.080Z,18.56
2023-02-17T11:11:06.675Z,18.61
2023-02-17T11:13:45.336Z,18.67
2023-02-17T11:16:26.710Z,18.72
2023-02-17T11:18:59.804Z,18.73
2023-02-17T11:21:34.815Z,18.77
2023-02-17T11:24:08.156Z,18.80
2023-02-17T11:26:41.081Z,18.80
2023-02-17T11:29:18.364Z,18.83
2023-02-17T11:31:56.116Z,18.85
2023-02-17T11:34:33.024Z,18.83
2023-02-17T11:37:22.076Z,18.86
2023-02-17T11:39:56.837Z,18.87
2023-02-17T11:42:31.914Z,18.84
2023-02-17T11:45:18.433Z,18.88
2023-02-17T11:48:06.159Z,18.88
2023-02-17T11:50:48.160Z,18.90
2023-02-17T11:53:34.713Z,18.93
2023-02-17T11:56:16.111Z,18.97
2023-02-17T11:59:12.944Z,19.02
2023-02-17T12:02:26.333Z,19.06
2023-02-17T12:05:15.361Z,19.10
2023-02-17T12:08:00.764Z,19.14
2023-02-17T12:10:47.625Z,19.16
2023-02-17T12:13:32.486Z,19.16
2023-02-17T12:16:30.165Z,19.17
2023-02-17T12:19:11.452Z,19.17
2023-02-17T12:22:03.018Z,19.17
2023-02-17T12:24:54.703Z,19.18
2023-02-17T12:27:43.467Z,19.19
2023-02-17T12:30:27.878Z,19.20
2023-02-17T12:33:20.195Z,19.22
2023-02-17T12:35:56.287Z,19.26
2023-02-17T12:38:33.280Z,19.29
2023-02-17T12:41:11.280Z,19.35
2023-02-17T12:43:49.451Z,19.36
2023-02-17T12:46:27.080Z,19.39
2023-02-17T12:49:07.486Z,19.39
2023-02-17T12:51:46.431Z,19.38
2023-02-17T12:54:25.743Z,19.36
2023-02-17T12:57:09.170Z,19.36
2023-02-17T12:59:45.669Z,19.36
2023-02-17T13:02:19.967Z,19.38
2023-02-17T13:04:54.860Z,19.43
2023-02-17T13:07:40.832Z,19.50
2023-02-17T13:10:29.294Z,19.53
2023-02-17T13:13:07.476Z,19.56
2023-02-17T13:15:44.067Z,19.59
2023-02-17T13:18:29.986Z,19.64
2023-02-17T13:21:16.173Z,19.65
2023-02-17T13:24:00.806Z,19.68
2023-02-17T13:26:35.466Z,19.67
2023-02-17T13:29:23.164Z,19.70
2023-02-17T13:31:59.813Z,19.69
2023-02-17T13:34:36.100Z,19.70
2023-02-17T13:37:28.384Z,19.71
2023-02-17T13:40:02.163Z,19.70
2023-02-17T13:42:38.409Z,19.71
2023-02-17T13:45:26.549Z,19.73
2023-02-17T13:48:12.432Z,19.71
2023-02-17T13:50:47.571Z,19.70
2023-02-17T13:53:28.680Z,19.71
2023-02-17T13:56:04.911Z,19.70
2023-02-17T13:58:40.475Z,19.69
2023-02-17T14:01:17.667Z,19.68
2023-02-17T14:03:54.266Z,19.66
2023-02-17T14:06:30.639Z,19.64
2023-02-17T14:09:13.320Z,19.63
2023-02-17T14:11:46.349Z,19.57
2023-02-17T14:14:19.724Z,19.54
2023-02-17T14:17:01.854Z,19.53
2023-02-17T14:19:45.996Z,19.50
2023-02-17T14:22:28.912Z,19.47
2023-02-17T14:25:04.518Z,19.43
2023-02-17T14:27:48.573Z,19.43
2023-02-17T14:30:30.624Z,19.41
2023-02-17T14:33:06.276Z,19.39
2023-02-17T14:35:51.494Z,19.39
2023-02-17T14:38:26.912Z,19.35
2023-02-17T14:41:01.291Z,19.32
2023-02-17T14:43:34.670Z,19.27
2023-02-17T14:46:07.854Z,19.23
2023-02-17T14:48:40.909Z,19.19
2023-02-17T14:51:17.184Z,19.17
2023-02-17T14:53:51.345Z,19.13
2023-02-17T14:56:27.704Z,19.09
2023-02-17T14:59:00.881Z,19.05
2023-02-17T15:01:33.960Z,19.01
2023-02-17T15:04:06.989Z,18.97
2023-02-17T15:06:43.561Z,18.93
2023-02-17T15:09:18.466Z,18.88
2023-02-17T15:11:51.863Z,18.83
2023-02-17T15:14:24.750Z,18.79
2023-02-17T15:16:57.757Z,18.75
2023-02-17T15:19:30.685Z,18.73
2023-02-17T15:22:06.891Z,18.72
2023-02-17T15:24:41.071Z,18.68
2023-02-17T15:27:17.420Z,18.67
2023-02-17T15:29:50.391Z,18.66
2023-02-17T15:32:24.121Z,18.64
2023-02-17T15:34:57.860Z,18.61
2023-02-17T15:37:32.522Z,18.58
2023-02-17T15:40:05.992Z,18.54
2023-02-17T15:42:39.026Z,18.49
2023-02-17T15:45:15.171Z,18.43
2023-02-17T15:47:49.360Z,18.35
2023-02-17T15:50:23.807Z,18.24
2023-02-17T15:52:58.128Z,18.12
2023-02-17T15:55:31.070Z,17.97
2023-02-17T15:58:05.550Z,17.80
2023-02-17T16:00:38.402Z,17.62
2023-02-17T16:03:13.517Z,17.44
2023-02-17T16:05:46.651Z,17.26
2023-02-17T16:08:21.108Z,17.10
2023-02-17T16:10:55.600Z,16.93
2023-02-17T16:13:28.983Z,16.76
2023-02-17T16:16:01.899Z,16.59
2023-02-17T16:18:34.808Z,16.41
2023-02-17T16:21:07.766Z,16.27
2023-02-17T16:23:42.970Z,16.12
2023-02-17T16:26:21.022Z,15.96
2023-02-17T16:28:54.560Z,15.82
2023-02-17T16:31:27.654Z,15.68
2023-02-17T16:34:00.584Z,15.57
2023-02-17T16:36:36.538Z,15.46
2023-02-17T16:39:14.819Z,15.35
2023-02-17T16:41:48.325Z,15.23
2023-02-17T16:44:23.241Z,15.10
2023-02-17T16:46:57.320Z,15.01
2023-02-17T16:49:33.498Z,14.89
2023-02-17T16:52:08.236Z,14.78
2023-02-17T16:54:42.480Z,14.68
2023-02-17T16:57:18.388Z,14.58
2023-02-17T16:59:51.317Z,14.50
2023-02-17T17:02:24.315Z,14.41
2023-02-17T17:04:57.241Z,14.33
2023-02-17T17:07:31.906Z,14.25
2023-02-17T17:10:16.392Z,14.19
2023-02-17T17:12:50.695Z,14.10
2023-02-17T17:15:24.175Z,14.01
2023-02-17T17:17:59.279Z,13.95
2023-02-17T17:20:35.466Z,13.88
2023-02-17T17:23:11.980Z,13.80
2023-02-17T17:25:48.568Z,13.75
2023-02-17T17:28:21.545Z,13.67
2023-02-17T17:30:54.523Z,13.61
2023-02-17T17:33:27.534Z,13.55
2023-02-17T17:36:00.377Z,13.51
2023-02-17T17:38:33.295Z,13.43
2023-02-17T17:41:07.665Z,13.37
2023-02-17T17:43:40.941Z,13.29
2023-02-17T17:46:16.518Z,13.26
2023-02-17T17:48:50.004Z,13.19
2023-02-17T17:51:24.656Z,13.18
2023-02-17T17:53:58.274Z,13.16
2023-02-17T17:56:35.182Z,13.20
2023-02-17T17:59:14.661Z,13.23
2023-02-17T18:01:47.619Z,13.26
2023-02-17T18:04:20.615Z,13.28
2023-02-17T18:06:56.829Z,13.34
2023-02-17T18:09:34.320Z,13.40
2023-02-17T18:12:12.536Z,13.45
2023-02-17T18:14:49.056Z,13.51
2023-02-17T18:17:23.872Z,13.56
2023-02-17T18:19:57.346Z,13.59
2023-02-17T18:22:30.330Z,13.60
2023-02-17T18:25:03.184Z,13.62
2023-02-17T18:27:42.518Z,13.64
2023-02-17T18:30:19.164Z,13.62
2023-02-17T18:32:53.024Z,13.62
2023-02-17T18:35:26.031Z,13.61
2023-02-17T18:37:58.919Z,13.59
2023-02-17T18:40:31.918Z,13.60
2023-02-17T18:43:06.825Z,13.56
2023-02-17T18:45:39.672Z,13.53
2023-02-17T18:48:12.777Z,13.50
2023-02-17T18:50:46.338Z,13.46
2023-02-17T18:53:19.966Z,13.41
2023-02-17T18:55:52.869Z,13.37
2023-02-17T18:58:27.475Z,13.34
2023-02-17T19:01:00.376Z,13.33
2023-02-17T19:03:33.299Z,13.30
2023-02-17T19:06:10.475Z,13.30
2023-02-17T19:08:43.675Z,13.26
2023-02-17T19:11:18.083Z,13.26
2023-02-17T19:13:53.392Z,13.25
2023-02-17T19:16:28.914Z,13.23
2023-02-17T19:19:02.160Z,13.18
2023-02-17T19:21:36.417Z,13.18
2023-02-17T19:24:10.729Z,13.15
2023-02-17T19:26:44.250Z,13.14
2023-02-17T19:29:18.692Z,13.14
2023-02-17T19:31:51.722Z,13.12
2023-02-17T19:34:24.784Z,13.11
2023-02-17T19:36:58.390Z,13.12
2023-02-17T19:39:31.583Z,13.13
2023-02-17T19:42:05.171Z,13.11
2023-02-17T19:44:39.398Z,13.14
2023-02-17T19:47:12.513Z,13.13
2023-02-17T19:49:45.472Z,13.16
2023-02-17T19:52:18.424Z,13.18
2023-02-17T19:54:51.332Z,13.22
2023-02-17T19:57:24.504Z,13.24
2023-02-17T19:59:59.169Z,13.28
2023-02-17T20:02:32.115Z,13.29
2023-02-17T20:05:06.000Z,13.31
2023-02-17T20:07:39.207Z,13.35
2023-02-17T20:10:13.089Z,13.36
2023-02-17T20:15:20.597Z,13.41
2023-02-17T20:17:53.568Z,13.41
2023-02-17T20:20:26.477Z,13.43
2023-02-17T20:22:59.379Z,13.45
2023-02-17T20:25:32.345Z,13.49
2023-02-17T20:28:05.420Z,13.50
2023-02-17T20:30:39.798Z,13.52
2023-02-17T20:33:13.289Z,13.55
2023-02-17T20:35:46.198Z,13.56
2023-02-17T20:38:19.149Z,13.58
2023-02-17T20:40:52.390Z,13.59
2023-02-17T20:43:25.643Z,13.60
2023-02-17T20:46:00.465Z,13.64
2023-02-17T20:48:33.558Z,13.60
2023-02-17T20:51:07.066Z,13.60
2023-02-17T20:53:40.047Z,13.59
2023-02-17T20:56:15.160Z,13.61
2023-02-17T20:58:48.481Z,13.58
2023-02-17T21:01:22.890Z,13.58
2023-02-17T21:03:56.499Z,13.58
2023-02-17T21:06:31.992Z,13.58
2023-02-17T21:09:07.769Z,13.57
2023-02-17T21:11:40.870Z,13.55
2023-02-17T21:14:14.085Z,13.56
2023-02-17T21:16:48.645Z,13.57
2023-02-17T21:19:22.115Z,13.56
2023-02-17T21:21:55.001Z,13.56
2023-02-17T21:24:28.302Z,13.56
2023-02-17T21:27:01.199Z,13.55
2023-02-17T21:29:34.120Z,13.56
2023-02-17T21:32:08.564Z,13.57
2023-02-17T21:34:41.517Z,13.57
2023-02-17T21:37:14.407Z,13.58
2023-02-17T21:39:47.340Z,13.60
2023-02-17T21:42:36.198Z,13.61
2023-02-17T21:45:10.008Z,13.62
2023-02-17T21:47:44.332Z,13.62
2023-02-17T21:50:17.590Z,13.62
2023-02-17T21:52:50.430Z,13.63
2023-02-17T21:55:23.735Z,13.64
2023-02-17T21:57:56.687Z,13.68
2023-02-17T22:00:29.674Z,13.70
2023-02-17T22:03:03.901Z,13.75
2023-02-17T22:05:36.787Z,13.78
2023-02-17T22:08:09.672Z,13.80
2023-02-17T22:10:43.817Z,13.85
2023-02-17T22:13:16.794Z,13.87
2023-02-17T22:15:58.447Z,13.92
2023-02-17T22:18:32.734Z,13.93
2023-02-17T22:21:10.247Z,13.98
2023-02-17T22:23:43.457Z,13.98
2023-02-17T22:26:18.283Z,14.00
2023-02-17T22:28:51.439Z,14.03
2023-02-17T22:31:26.625Z,14.05
2023-02-17T22:34:04.067Z,14.08
2023-02-17T22:36:38.546Z,14.10
2023-02-17T22:39:11.420Z,14.13
2023-02-17T22:41:44.596Z,14.16
2023-02-17T22:44:17.498Z,14.16
2023-02-17T22:46:50.533Z,14.17
2023-02-17T22:49:24.889Z,14.20
2023-02-17T22:51:57.848Z,14.18
2023-02-17T22:54:32.164Z,14.19
2023-02-17T22:57:05.156Z,14.15
2023-02-17T22:59:38.106Z,14.14
2023-02-17T23:02:11.033Z,14.08
2023-02-17T23:04:45.373Z,14.08
2023-02-17T23:07:18.371Z,14.02
2023-02-17T23:09:51.413Z,13.96
2023-02-17T23:12:25.910Z,13.91
2023-02-17T23:14:59.437Z,13.86
2023-02-17T23:17:52.983Z,13.79
2023-02-17T23:20:27.341Z,13.74
2023-02-17T23:23:00.298Z,13.68
2023-02-17T23:25:33.312Z,13.65
2023-02-17T23:28:07.176Z,13.62
2023-02-17T23:30:42.169Z,13.58
2023-02-17T23:33:15.461Z,13.53
2023-02-17T23:35:50.297Z,13.49
2023-02-17T23:38:23.345Z,13.43
2023-02-17T23:40:56.337Z,13.39
2023-02-17T23:43:29.821Z,13.36
2023-02-17T23:46:03.061Z,13.31
2023-02-17T23:48:35.992Z,13.28
2023-02-17T23:51:10.611Z,13.26
2023-02-17T23:53:43.677Z,13.23
2023-02-17T23:56:19.710Z,13.21
2023-02-17T23:58:52.906Z,13.19
